Sandra J Banta — WDF3432 — position and weather

sailwx.info

Track history (hours):
 
Tides and Currents Weather Stations Pressure Air Temp Water Temp Dewpoint Dewpoint Depression Visibility Wind Speed Wind Dir Waves Ship Positions

Sandra J Banta

Owner: Chem Carriers Towing, LLC, Sunshine, LA. More information available from US FCC via Universal Licensing System and Coast Guard Vessel Documentation Center.

Last reported at 2018-Jan-19 20:02 UTC. Time now 2018-Jan-22 13:55 UTC.
Position N 29°45' W 095°10'.

MMSI: 367439810.

Date/timePositionNaut miles runAvg speedWind from/ knotsBaromVisibWave heightAir tempDewpointWater temp
2018-Jan-19 20:02N 29°45' W 095°10'0 7.0
2018-Jan-19 20:00N 29°45' W 095°10'3 6.4
2018-Jan-19 19:30N 29°45' W 095°06'1 0.4
2018-Jan-19 16:27N 29°46' W 095°06'0 0.0
2018-Jan-19 14:18N 29°46' W 095°06'1 1.4
2018-Jan-19 13:49N 29°47' W 095°06'0 0.0
2018-Jan-19 13:20N 29°47' W 095°06'0 0.0
2018-Jan-19 12:58N 29°47' W 095°06'0 0.0
2018-Jan-19 12:28N 29°47' W 095°06'1 0.4
2018-Jan-19 09:22N 29°46' W 095°06'3 5.4
2018-Jan-19 08:49N 29°44' W 095°09'2 1.7
2018-Jan-19 07:34N 29°46' W 095°11'0 0.2
2018-Jan-19 07:25N 29°46' W 095°11'1 1.5
2018-Jan-19 06:46N 29°45' W 095°10'0 1.3
2018-Jan-19 06:28N 29°45' W 095°10'2 3.8
2018-Jan-19 05:59N 29°44' W 095°08'2 3.8
2018-Jan-19 05:20N 29°45' W 095°06'1 2.5
2018-Jan-19 04:55N 29°46' W 095°04'3 6.2
2018-Jan-19 04:29N 29°44' W 095°02'3 5.8
2018-Jan-19 04:00N 29°42' W 094°60'3 7.0
2018-Jan-19 03:30N 29°39' W 094°58'3 6.9
2018-Jan-19 03:00N 29°36' W 094°56'4 7.3
2018-Jan-19 02:30N 29°33' W 094°54'  
2018-Jan-12 05:31N 29°45' W 095°06'0 0.3
2018-Jan-12 05:09N 29°45' W 095°06'1 5.0
2018-Jan-12 04:55N 29°46' W 095°05'1 1.8
2018-Jan-12 04:30N 29°46' W 095°06'0 0.1
2018-Jan-12 03:08N 29°46' W 095°06'0 0.3
2018-Jan-12 01:59N 29°47' W 095°06'1 1.0
2018-Jan-12 01:26N 29°46' W 095°06'1 0.4
2018-Jan-11 22:31N 29°45' W 095°06'0 6.9
2018-Jan-11 22:28N 29°46' W 095°05'1 1.2
2018-Jan-11 21:24N 29°47' W 095°06'0 0.0
2018-Jan-11 20:52N 29°47' W 095°06'0 0.0
2018-Jan-11 20:25N 29°47' W 095°06'0 0.1
2018-Jan-11 17:42N 29°46' W 095°06'0 1.2
2018-Jan-11 17:28N 29°46' W 095°06'0 0.3
2018-Jan-11 15:41N 29°46' W 095°06'1 3.9
2018-Jan-11 15:29N 29°46' W 095°05'1 0.7
2018-Jan-11 14:24N 29°46' W 095°06'0 0.0
2018-Jan-11 06:06N 29°47' W 095°06'0 3.7
2018-Jan-11 05:59N 29°46' W 095°06'0 0.6
2018-Jan-11 05:18N 29°46' W 095°06'2 4.8
2018-Jan-11 04:57N 29°44' W 095°07'7 0.5
2018-Jan-10 13:16N 29°43' W 095°15'4 6.4
2018-Jan-10 12:41N 29°45' W 095°11'1 6.6
2018-Jan-10 12:30N 29°45' W 095°10'3 6.3
2018-Jan-10 12:00N 29°45' W 095°06'1 2.6
2018-Jan-10 11:30N 29°46' W 095°06'0 0.0
2018-Jan-10 02:05N 29°46' W 095°06'0 0.6
2018-Jan-10 01:58N 29°46' W 095°06'0 0.9
2018-Jan-10 01:29N 29°46' W 095°06'0 0.1
2018-Jan-09 20:09N 29°46' W 095°06'  
Track history (hours):
 
Tides and Currents Weather Stations Pressure Air Temp Water Temp Dewpoint Dewpoint Depression Visibility Wind Speed Wind Dir Waves Ship Positions

Sandra J Banta

Owner: Chem Carriers Towing, LLC, Sunshine, LA. More information available from US FCC via Universal Licensing System and Coast Guard Vessel Documentation Center.

Last reported at 2018-Jan-19 20:02 UTC. Time now 2018-Jan-22 13:55 UTC.
Position N 29°45' W 095°10'.

MMSI: 367439810.

Date/timePositionNaut miles runAvg speedWind from/ knotsBaromVisibWave heightAir tempDewpointWater temp
2018-Jan-19 20:02N 29°45' W 095°10'0 7.0
2018-Jan-19 20:00N 29°45' W 095°10'3 6.4
2018-Jan-19 19:30N 29°45' W 095°06'1 0.4
2018-Jan-19 16:27N 29°46' W 095°06'0 0.0
2018-Jan-19 14:18N 29°46' W 095°06'1 1.4
2018-Jan-19 13:49N 29°47' W 095°06'0 0.0
2018-Jan-19 13:20N 29°47' W 095°06'0 0.0
2018-Jan-19 12:58N 29°47' W 095°06'0 0.0
2018-Jan-19 12:28N 29°47' W 095°06'1 0.4
2018-Jan-19 09:22N 29°46' W 095°06'3 5.4
2018-Jan-19 08:49N 29°44' W 095°09'2 1.7
2018-Jan-19 07:34N 29°46' W 095°11'0 0.2
2018-Jan-19 07:25N 29°46' W 095°11'1 1.5
2018-Jan-19 06:46N 29°45' W 095°10'0 1.3
2018-Jan-19 06:28N 29°45' W 095°10'2 3.8
2018-Jan-19 05:59N 29°44' W 095°08'2 3.8
2018-Jan-19 05:20N 29°45' W 095°06'1 2.5
2018-Jan-19 04:55N 29°46' W 095°04'3 6.2
2018-Jan-19 04:29N 29°44' W 095°02'3 5.8
2018-Jan-19 04:00N 29°42' W 094°60'3 7.0
2018-Jan-19 03:30N 29°39' W 094°58'3 6.9
2018-Jan-19 03:00N 29°36' W 094°56'4 7.3
2018-Jan-19 02:30N 29°33' W 094°54'  
2018-Jan-12 05:31N 29°45' W 095°06'0 0.3
2018-Jan-12 05:09N 29°45' W 095°06'1 5.0
2018-Jan-12 04:55N 29°46' W 095°05'1 1.8
2018-Jan-12 04:30N 29°46' W 095°06'0 0.1
2018-Jan-12 03:08N 29°46' W 095°06'0 0.3
2018-Jan-12 01:59N 29°47' W 095°06'1 1.0
2018-Jan-12 01:26N 29°46' W 095°06'1 0.4
2018-Jan-11 22:31N 29°45' W 095°06'0 6.9
2018-Jan-11 22:28N 29°46' W 095°05'1 1.2
2018-Jan-11 21:24N 29°47' W 095°06'0 0.0
2018-Jan-11 20:52N 29°47' W 095°06'0 0.0
2018-Jan-11 20:25N 29°47' W 095°06'0 0.1
2018-Jan-11 17:42N 29°46' W 095°06'0 1.2
2018-Jan-11 17:28N 29°46' W 095°06'0 0.3
2018-Jan-11 15:41N 29°46' W 095°06'1 3.9
2018-Jan-11 15:29N 29°46' W 095°05'1 0.7
2018-Jan-11 14:24N 29°46' W 095°06'0 0.0
2018-Jan-11 06:06N 29°47' W 095°06'0 3.7
2018-Jan-11 05:59N 29°46' W 095°06'0 0.6
2018-Jan-11 05:18N 29°46' W 095°06'2 4.8
2018-Jan-11 04:57N 29°44' W 095°07'7 0.5
2018-Jan-10 13:16N 29°43' W 095°15'4 6.4
2018-Jan-10 12:41N 29°45' W 095°11'1 6.6
2018-Jan-10 12:30N 29°45' W 095°10'3 6.3
2018-Jan-10 12:00N 29°45' W 095°06'1 2.6
2018-Jan-10 11:30N 29°46' W 095°06'0 0.0
2018-Jan-10 02:05N 29°46' W 095°06'0 0.6
2018-Jan-10 01:58N 29°46' W 095°06'0 0.9
2018-Jan-10 01:29N 29°46' W 095°06'0 0.1
2018-Jan-09 20:09N 29°46' W 095°06'  

Dump ship's entire track history